Warroad, MN (56763)

9:13 PM CDT on September 04, 2015 (GMT -0500)
Warroad International-Carlson | | Change Station
CLOSE
Current Station
Airport
Location: Warroad,
Elevation: 1073 ft
Nearby Weather Stations

Elev 1073 ft 48.94 °N, 95.35 °W | Updated 19 minutes ago

Scattered Clouds
Scattered Clouds
70 °F
Feels Like 70 °F
N
4
Wind Variable Wind from SSW

Today
High -- | Low -- °F
--% Chance of Precip.
Yesterday
High -- | Low -- °F
Precip. -- in
6:41 AM 7:57 PM
Waning Gibbous, 53% visible
Pressure 29.85 in
Visibility 10.0 miles
Clouds Scattered Clouds 8000 ft
Dew Point 64 °F
Humidity 83%
Rainfall 0.14 in
Snow Depth Not available.
UV 0 out of 12
Pollen 9.80 out of 12
Air Quality Not available.
Flu Activity Not available.
METAR KRRT 050154Z AUTO 21003KT 10SM SCT080 21/18 A2985 RMK AO2 LTG DSNT E
Pressure 29.85 in
Visibility 10.0 miles
Clouds Scattered Clouds 8000 ft
Dew Point 64 °F
Humidity 83%
Rainfall 0.14 in
Snow Depth Not available.
UV 0 out of 12
Pollen 9.80 out of 12
Air Quality Not available.
Flu Activity Not available.
METAR KRRT 050154Z AUTO 21003KT 10SM SCT080 21/18 A2985 RMK AO2 LTG DSNT E

10-Day Weather Forecast

×

Almanac

Astronomy

Sep. 04, 2015 Rise Set
Actual Time
Civil Twilight
Nautical Twilight
Astronomical Twilight
Moon
Length of Visible Light
Length of Day
Tomorrow will be .
, % of the Moon is Illuminated

Today's Extremes

State Highs State Lows

Community

WunderPhotos

Upload Photos

1,852,384 photos uploaded!

WunderBlogs® & News

Nearby

Air Quality

  Air Quality AQ Index Pollutant
Not available.

Snow Depth

Station Depth Elevation

Earthquake Activity

City Distance Mag. Time & Date
Minimum magnitude displayed is 2.5.

Coastal Water Temperatures

Place Temperature

Stations

Nearby Weather Stations

Station Location Temp. Windchill Dew Point Humidity Wind Precip. Elev Updated Type